Terminal Aerodrome Forecast
Issued by NWS

Home | Current Version | Previous Version | Text Only | Print | Product List | Glossary On
Versions: 1 2 3 4 5 6 7 8 9 10 11 12
000
FTUS45 KTFX 241139
TAFLWT
TAF
KLWT 241139Z 2412/2512 23015G22KT P6SM FEW200
     FM241600 27025G35KT P6SM FEW100 SCT200
     FM242000 27030G45KT P6SM SCT100
     FM250400 28022G33KT P6SM VCSH SCT025 BKN050
     FM250900 28020G28KT P6SM -SHRA SCT015 BKN025=

USA.gov is the U.S. government's official web portal to all federal, state and local government web resources and services.